sensor_id;sensor_type;location;lat;lon;timestamp;P1;durP1;ratioP1;P2;durP2;ratioP2
4616;SDS011;2321;42.704;23.384;2024-02-26T00:01:31;45.27;;;14.50;;
4616;SDS011;2321;42.704;23.384;2024-02-26T00:03:59;38.50;;;15.67;;
4616;SDS011;2321;42.704;23.384;2024-02-26T00:06:27;40.20;;;15.37;;
4616;SDS011;2321;42.704;23.384;2024-02-26T00:08:54;36.50;;;15.10;;
4616;SDS011;2321;42.704;23.384;2024-02-26T00:11:21;31.47;;;14.13;;
4616;SDS011;2321;42.704;23.384;2024-02-26T00:13:48;30.80;;;14.07;;
4616;SDS011;2321;42.704;23.384;2024-02-26T00:16:17;38.53;;;15.00;;
4616;SDS011;2321;42.704;23.384;2024-02-26T00:18:44;32.93;;;13.10;;
4616;SDS011;2321;42.704;23.384;2024-02-26T00:21:11;25.27;;;13.53;;
4616;SDS011;2321;42.704;23.384;2024-02-26T00:23:38;22.53;;;10.63;;
4616;SDS011;2321;42.704;23.384;2024-02-26T00:26:06;29.50;;;10.77;;
4616;SDS011;2321;42.704;23.384;2024-02-26T00:28:36;14.57;;;9.90;;
4616;SDS011;2321;42.704;23.384;2024-02-26T00:31:03;16.30;;;9.47;;
4616;SDS011;2321;42.704;23.384;2024-02-26T00:33:32;24.77;;;12.00;;
4616;SDS011;2321;42.704;23.384;2024-02-26T00:35:59;19.27;;;10.03;;
4616;SDS011;2321;42.704;23.384;2024-02-26T00:38:26;13.73;;;10.10;;
4616;SDS011;2321;42.704;23.384;2024-02-26T00:40:53;25.50;;;13.27;;
4616;SDS011;2321;42.704;23.384;2024-02-26T00:43:20;37.03;;;12.07;;
4616;SDS011;2321;42.704;23.384;2024-02-26T00:45:47;30.10;;;11.13;;
4616;SDS011;2321;42.704;23.384;2024-02-26T00:48:14;74.53;;;11.67;;
4616;SDS011;2321;42.704;23.384;2024-02-26T00:50:43;16.63;;;11.77;;
4616;SDS011;2321;42.704;23.384;2024-02-26T00:53:10;17.17;;;9.70;;
4616;SDS011;2321;42.704;23.384;2024-02-26T00:55:37;20.43;;;9.57;;
4616;SDS011;2321;42.704;23.384;2024-02-26T00:58:04;14.90;;;9.00;;
4616;SDS011;2321;42.704;23.384;2024-02-26T01:00:31;26.77;;;11.33;;
4616;SDS011;2321;42.704;23.384;2024-02-26T01:02:58;22.50;;;9.73;;
4616;SDS011;2321;42.704;23.384;2024-02-26T01:05:25;14.97;;;9.20;;
4616;SDS011;2321;42.704;23.384;2024-02-26T01:07:54;27.47;;;10.60;;
4616;SDS011;2321;42.704;23.384;2024-02-26T01:10:21;16.10;;;8.90;;
4616;SDS011;2321;42.704;23.384;2024-02-26T01:12:48;15.83;;;8.90;;
4616;SDS011;2321;42.704;23.384;2024-02-26T01:15:15;33.60;;;12.00;;
4616;SDS011;2321;42.704;23.384;2024-02-26T01:17:44;23.33;;;10.47;;
4616;SDS011;2321;42.704;23.384;2024-02-26T01:20:11;18.17;;;9.03;;
4616;SDS011;2321;42.704;23.384;2024-02-26T01:22:38;26.00;;;10.20;;
4616;SDS011;2321;42.704;23.384;2024-02-26T01:25:07;16.40;;;9.90;;
4616;SDS011;2321;42.704;23.384;2024-02-26T01:27:35;23.97;;;10.60;;
4616;SDS011;2321;42.704;23.384;2024-02-26T01:30:03;41.93;;;10.87;;
4616;SDS011;2321;42.704;23.384;2024-02-26T01:32:31;24.53;;;13.10;;
4616;SDS011;2321;42.704;23.384;2024-02-26T01:34:58;27.17;;;13.60;;
4616;SDS011;2321;42.704;23.384;2024-02-26T01:37:25;26.63;;;11.00;;
4616;SDS011;2321;42.704;23.384;2024-02-26T01:39:52;17.53;;;10.70;;
4616;SDS011;2321;42.704;23.384;2024-02-26T01:42:21;29.93;;;13.10;;
4616;SDS011;2321;42.704;23.384;2024-02-26T01:44:48;15.80;;;10.73;;
4616;SDS011;2321;42.704;23.384;2024-02-26T01:47:15;14.13;;;8.27;;
4616;SDS011;2321;42.704;23.384;2024-02-26T01:49:42;19.57;;;10.10;;
4616;SDS011;2321;42.704;23.384;2024-02-26T01:52:09;23.37;;;10.97;;
4616;SDS011;2321;42.704;23.384;2024-02-26T01:54:37;20.97;;;9.33;;
4616;SDS011;2321;42.704;23.384;2024-02-26T01:57:05;24.63;;;11.93;;
4616;SDS011;2321;42.704;23.384;2024-02-26T01:59:36;25.83;;;11.07;;
4616;SDS011;2321;42.704;23.384;2024-02-26T02:02:05;21.00;;;10.33;;
4616;SDS011;2321;42.704;23.384;2024-02-26T02:04:34;27.87;;;13.17;;
4616;SDS011;2321;42.704;23.384;2024-02-26T02:07:01;17.87;;;11.17;;
4616;SDS011;2321;42.704;23.384;2024-02-26T02:09:29;18.97;;;11.20;;
4616;SDS011;2321;42.704;23.384;2024-02-26T02:11:56;19.80;;;11.80;;
4616;SDS011;2321;42.704;23.384;2024-02-26T02:14:25;22.47;;;9.60;;
4616;SDS011;2321;42.704;23.384;2024-02-26T02:16:54;18.73;;;12.00;;
4616;SDS011;2321;42.704;23.384;2024-02-26T02:19:21;17.10;;;9.43;;
4616;SDS011;2321;42.704;23.384;2024-02-26T02:21:49;22.80;;;10.50;;
4616;SDS011;2321;42.704;23.384;2024-02-26T02:24:16;31.73;;;12.10;;
4616;SDS011;2321;42.704;23.384;2024-02-26T02:26:44;16.90;;;10.07;;
4616;SDS011;2321;42.704;23.384;2024-02-26T02:29:11;25.73;;;10.63;;
4616;SDS011;2321;42.704;23.384;2024-02-26T02:31:39;23.10;;;10.10;;
4616;SDS011;2321;42.704;23.384;2024-02-26T02:34:07;20.10;;;11.53;;
4616;SDS011;2321;42.704;23.384;2024-02-26T02:36:35;23.13;;;10.73;;
4616;SDS011;2321;42.704;23.384;2024-02-26T02:39:19;30.50;;;13.00;;
4616;SDS011;2321;42.704;23.384;2024-02-26T02:41:47;33.93;;;12.60;;
4616;SDS011;2321;42.704;23.384;2024-02-26T02:44:14;34.43;;;14.97;;
4616;SDS011;2321;42.704;23.384;2024-02-26T02:46:41;23.33;;;11.07;;
4616;SDS011;2321;42.704;23.384;2024-02-26T02:49:08;27.63;;;12.13;;
4616;SDS011;2321;42.704;23.384;2024-02-26T02:51:36;15.33;;;10.23;;
4616;SDS011;2321;42.704;23.384;2024-02-26T02:54:04;21.37;;;11.77;;
4616;SDS011;2321;42.704;23.384;2024-02-26T02:56:31;18.93;;;10.77;;
4616;SDS011;2321;42.704;23.384;2024-02-26T02:58:59;24.37;;;13.00;;
4616;SDS011;2321;42.704;23.384;2024-02-26T03:01:26;26.23;;;12.07;;
4616;SDS011;2321;42.704;23.384;2024-02-26T03:03:53;18.23;;;10.53;;
4616;SDS011;2321;42.704;23.384;2024-02-26T03:06:20;42.80;;;11.40;;
4616;SDS011;2321;42.704;23.384;2024-02-26T03:08:47;22.17;;;10.80;;
4616;SDS011;2321;42.704;23.384;2024-02-26T03:11:15;19.37;;;11.90;;
4616;SDS011;2321;42.704;23.384;2024-02-26T03:13:43;24.27;;;12.63;;
4616;SDS011;2321;42.704;23.384;2024-02-26T03:16:11;23.53;;;12.40;;
4616;SDS011;2321;42.704;23.384;2024-02-26T03:18:38;26.93;;;14.23;;
4616;SDS011;2321;42.704;23.384;2024-02-26T03:21:06;30.43;;;12.07;;
4616;SDS011;2321;42.704;23.384;2024-02-26T03:23:33;19.27;;;12.87;;
4616;SDS011;2321;42.704;23.384;2024-02-26T03:26:02;26.23;;;12.87;;
4616;SDS011;2321;42.704;23.384;2024-02-26T03:28:31;26.67;;;12.70;;
4616;SDS011;2321;42.704;23.384;2024-02-26T03:30:59;74.20;;;31.63;;
4616;SDS011;2321;42.704;23.384;2024-02-26T03:33:26;29.80;;;15.00;;
4616;SDS011;2321;42.704;23.384;2024-02-26T03:35:53;33.13;;;14.50;;
4616;SDS011;2321;42.704;23.384;2024-02-26T03:38:20;26.43;;;11.53;;
4616;SDS011;2321;42.704;23.384;2024-02-26T03:40:47;20.67;;;13.20;;
4616;SDS011;2321;42.704;23.384;2024-02-26T03:43:14;19.47;;;10.13;;
4616;SDS011;2321;42.704;23.384;2024-02-26T03:45:43;25.30;;;11.00;;
4616;SDS011;2321;42.704;23.384;2024-02-26T03:48:10;14.33;;;8.27;;
4616;SDS011;2321;42.704;23.384;2024-02-26T03:50:37;17.27;;;9.43;;
4616;SDS011;2321;42.704;23.384;2024-02-26T03:53:04;28.63;;;11.63;;
4616;SDS011;2321;42.704;23.384;2024-02-26T03:55:34;34.50;;;14.63;;
4616;SDS011;2321;42.704;23.384;2024-02-26T03:58:01;28.13;;;14.90;;
4616;SDS011;2321;42.704;23.384;2024-02-26T04:00:28;18.97;;;12.23;;
4616;SDS011;2321;42.704;23.384;2024-02-26T04:02:56;16.23;;;9.30;;
4616;SDS011;2321;42.704;23.384;2024-02-26T04:05:24;26.83;;;10.10;;
4616;SDS011;2321;42.704;23.384;2024-02-26T04:07:51;18.07;;;10.80;;
4616;SDS011;2321;42.704;23.384;2024-02-26T04:10:18;20.63;;;10.37;;
4616;SDS011;2321;42.704;23.384;2024-02-26T04:12:45;10.40;;;8.40;;
4616;SDS011;2321;42.704;23.384;2024-02-26T04:15:12;18.23;;;9.80;;
4616;SDS011;2321;42.704;23.384;2024-02-26T04:17:39;15.23;;;10.37;;
4616;SDS011;2321;42.704;23.384;2024-02-26T04:20:12;18.73;;;10.00;;
4616;SDS011;2321;42.704;23.384;2024-02-26T04:22:40;15.60;;;9.10;;
4616;SDS011;2321;42.704;23.384;2024-02-26T04:25:08;28.63;;;8.20;;
4616;SDS011;2321;42.704;23.384;2024-02-26T04:27:35;14.77;;;8.80;;
4616;SDS011;2321;42.704;23.384;2024-02-26T04:30:04;14.23;;;8.97;;
4616;SDS011;2321;42.704;23.384;2024-02-26T04:32:31;15.97;;;8.97;;
4616;SDS011;2321;42.704;23.384;2024-02-26T04:34:59;23.33;;;15.90;;
4616;SDS011;2321;42.704;23.384;2024-02-26T04:37:28;96.97;;;37.80;;
4616;SDS011;2321;42.704;23.384;2024-02-26T04:39:57;41.73;;;18.53;;
4616;SDS011;2321;42.704;23.384;2024-02-26T04:42:24;24.63;;;9.23;;
4616;SDS011;2321;42.704;23.384;2024-02-26T04:44:51;8.43;;;7.33;;
4616;SDS011;2321;42.704;23.384;2024-02-26T04:47:18;11.10;;;8.37;;
4616;SDS011;2321;42.704;23.384;2024-02-26T04:49:47;16.50;;;8.50;;
4616;SDS011;2321;42.704;23.384;2024-02-26T04:52:14;14.87;;;9.27;;
4616;SDS011;2321;42.704;23.384;2024-02-26T04:54:43;13.13;;;9.43;;
4616;SDS011;2321;42.704;23.384;2024-02-26T04:57:10;24.37;;;10.33;;
4616;SDS011;2321;42.704;23.384;2024-02-26T04:59:37;18.47;;;9.27;;
4616;SDS011;2321;42.704;23.384;2024-02-26T05:02:05;12.83;;;9.07;;
4616;SDS011;2321;42.704;23.384;2024-02-26T05:04:33;17.70;;;9.27;;
4616;SDS011;2321;42.704;23.384;2024-02-26T05:07:00;15.33;;;8.37;;
4616;SDS011;2321;42.704;23.384;2024-02-26T05:09:27;32.17;;;10.83;;
4616;SDS011;2321;42.704;23.384;2024-02-26T05:11:55;16.53;;;9.77;;
4616;SDS011;2321;42.704;23.384;2024-02-26T05:14:22;40.00;;;12.87;;
4616;SDS011;2321;42.704;23.384;2024-02-26T05:16:49;13.27;;;7.27;;
4616;SDS011;2321;42.704;23.384;2024-02-26T05:19:16;16.20;;;9.77;;
4616;SDS011;2321;42.704;23.384;2024-02-26T05:21:43;17.70;;;10.90;;
4616;SDS011;2321;42.704;23.384;2024-02-26T05:24:12;13.03;;;9.10;;
4616;SDS011;2321;42.704;23.384;2024-02-26T05:26:40;12.03;;;9.20;;
4616;SDS011;2321;42.704;23.384;2024-02-26T05:29:09;27.10;;;8.77;;
4616;SDS011;2321;42.704;23.384;2024-02-26T05:31:36;21.97;;;9.37;;
4616;SDS011;2321;42.704;23.384;2024-02-26T05:34:03;24.40;;;10.67;;
4616;SDS011;2321;42.704;23.384;2024-02-26T05:36:30;21.83;;;10.17;;
4616;SDS011;2321;42.704;23.384;2024-02-26T05:38:59;23.03;;;11.13;;
4616;SDS011;2321;42.704;23.384;2024-02-26T05:41:26;57.23;;;14.43;;
4616;SDS011;2321;42.704;23.384;2024-02-26T05:43:53;19.20;;;11.13;;
4616;SDS011;2321;42.704;23.384;2024-02-26T05:46:22;40.50;;;10.90;;
4616;SDS011;2321;42.704;23.384;2024-02-26T05:48:50;23.53;;;13.17;;
4616;SDS011;2321;42.704;23.384;2024-02-26T05:51:18;23.33;;;11.90;;
4616;SDS011;2321;42.704;23.384;2024-02-26T05:53:45;23.17;;;11.60;;
4616;SDS011;2321;42.704;23.384;2024-02-26T05:56:19;20.90;;;11.03;;
4616;SDS011;2321;42.704;23.384;2024-02-26T05:58:46;23.17;;;11.90;;
4616;SDS011;2321;42.704;23.384;2024-02-26T06:01:15;34.40;;;12.40;;
4616;SDS011;2321;42.704;23.384;2024-02-26T06:03:44;25.07;;;13.17;;
4616;SDS011;2321;42.704;23.384;2024-02-26T06:06:11;28.10;;;11.90;;
4616;SDS011;2321;42.704;23.384;2024-02-26T06:08:38;37.47;;;11.83;;
4616;SDS011;2321;42.704;23.384;2024-02-26T06:11:05;18.47;;;12.17;;
4616;SDS011;2321;42.704;23.384;2024-02-26T06:13:33;35.10;;;13.30;;
4616;SDS011;2321;42.704;23.384;2024-02-26T06:16:00;44.80;;;9.97;;
4616;SDS011;2321;42.704;23.384;2024-02-26T06:18:27;22.50;;;13.07;;
4616;SDS011;2321;42.704;23.384;2024-02-26T06:20:56;24.50;;;11.90;;
4616;SDS011;2321;42.704;23.384;2024-02-26T06:23:23;18.63;;;10.90;;
4616;SDS011;2321;42.704;23.384;2024-02-26T06:25:51;18.80;;;10.43;;
4616;SDS011;2321;42.704;23.384;2024-02-26T06:28:18;18.30;;;9.60;;
4616;SDS011;2321;42.704;23.384;2024-02-26T06:30:45;24.17;;;11.37;;
4616;SDS011;2321;42.704;23.384;2024-02-26T06:33:12;22.50;;;11.30;;
4616;SDS011;2321;42.704;23.384;2024-02-26T06:35:41;21.60;;;12.17;;
4616;SDS011;2321;42.704;23.384;2024-02-26T06:38:10;25.53;;;11.20;;
4616;SDS011;2321;42.704;23.384;2024-02-26T06:40:40;29.93;;;11.83;;
4616;SDS011;2321;42.704;23.384;2024-02-26T06:43:07;34.23;;;12.73;;
4616;SDS011;2321;42.704;23.384;2024-02-26T06:45:34;24.07;;;14.17;;
4616;SDS011;2321;42.704;23.384;2024-02-26T06:48:02;35.80;;;15.07;;
4616;SDS011;2321;42.704;23.384;2024-02-26T06:50:29;28.83;;;15.53;;
4616;SDS011;2321;42.704;23.384;2024-02-26T06:52:56;39.73;;;17.80;;
4616;SDS011;2321;42.704;23.384;2024-02-26T06:55:24;23.20;;;12.10;;
4616;SDS011;2321;42.704;23.384;2024-02-26T06:57:51;25.77;;;13.67;;
4616;SDS011;2321;42.704;23.384;2024-02-26T07:00:18;24.10;;;12.73;;
4616;SDS011;2321;42.704;23.384;2024-02-26T07:02:46;22.63;;;12.30;;
4616;SDS011;2321;42.704;23.384;2024-02-26T07:05:13;25.03;;;11.20;;
4616;SDS011;2321;42.704;23.384;2024-02-26T07:07:42;39.63;;;11.00;;
4616;SDS011;2321;42.704;23.384;2024-02-26T07:10:09;27.57;;;11.60;;
4616;SDS011;2321;42.704;23.384;2024-02-26T07:12:39;17.23;;;11.33;;
4616;SDS011;2321;42.704;23.384;2024-02-26T07:15:06;30.07;;;10.67;;
4616;SDS011;2321;42.704;23.384;2024-02-26T07:17:36;15.03;;;9.53;;
4616;SDS011;2321;42.704;23.384;2024-02-26T07:20:03;25.80;;;13.97;;
4616;SDS011;2321;42.704;23.384;2024-02-26T07:22:30;17.70;;;10.43;;
4616;SDS011;2321;42.704;23.384;2024-02-26T07:25:01;19.87;;;10.90;;
4616;SDS011;2321;42.704;23.384;2024-02-26T07:27:28;19.60;;;11.63;;
4616;SDS011;2321;42.704;23.384;2024-02-26T07:29:57;22.70;;;11.67;;
4616;SDS011;2321;42.704;23.384;2024-02-26T07:32:24;29.30;;;11.30;;
4616;SDS011;2321;42.704;23.384;2024-02-26T07:34:51;20.37;;;12.63;;
4616;SDS011;2321;42.704;23.384;2024-02-26T07:37:18;26.63;;;11.13;;
4616;SDS011;2321;42.704;23.384;2024-02-26T07:39:45;21.50;;;10.67;;
4616;SDS011;2321;42.704;23.384;2024-02-26T07:42:12;21.20;;;11.20;;
4616;SDS011;2321;42.704;23.384;2024-02-26T07:44:39;23.07;;;11.40;;
4616;SDS011;2321;42.704;23.384;2024-02-26T07:47:09;25.73;;;8.93;;
4616;SDS011;2321;42.704;23.384;2024-02-26T07:49:36;22.23;;;11.50;;
4616;SDS011;2321;42.704;23.384;2024-02-26T07:52:04;25.97;;;13.13;;
4616;SDS011;2321;42.704;23.384;2024-02-26T07:54:31;32.47;;;16.97;;
4616;SDS011;2321;42.704;23.384;2024-02-26T07:56:58;30.07;;;13.47;;
4616;SDS011;2321;42.704;23.384;2024-02-26T07:59:26;16.57;;;10.13;;
4616;SDS011;2321;42.704;23.384;2024-02-26T08:01:53;20.27;;;11.80;;
4616;SDS011;2321;42.704;23.384;2024-02-26T08:04:22;26.03;;;12.20;;
4616;SDS011;2321;42.704;23.384;2024-02-26T08:06:49;27.57;;;11.80;;
4616;SDS011;2321;42.704;23.384;2024-02-26T08:09:16;13.20;;;9.23;;
4616;SDS011;2321;42.704;23.384;2024-02-26T08:11:43;23.80;;;13.30;;
4616;SDS011;2321;42.704;23.384;2024-02-26T08:14:10;26.20;;;13.80;;
4616;SDS011;2321;42.704;23.384;2024-02-26T08:16:38;25.40;;;12.90;;
4616;SDS011;2321;42.704;23.384;2024-02-26T08:19:05;23.97;;;13.50;;
4616;SDS011;2321;42.704;23.384;2024-02-26T08:21:33;21.83;;;12.00;;
4616;SDS011;2321;42.704;23.384;2024-02-26T08:24:02;27.57;;;13.00;;
4616;SDS011;2321;42.704;23.384;2024-02-26T08:26:29;27.47;;;13.53;;
4616;SDS011;2321;42.704;23.384;2024-02-26T08:28:56;19.73;;;10.37;;
4616;SDS011;2321;42.704;23.384;2024-02-26T08:31:23;13.40;;;9.83;;
4616;SDS011;2321;42.704;23.384;2024-02-26T08:33:50;12.00;;;7.87;;
4616;SDS011;2321;42.704;23.384;2024-02-26T08:36:17;15.50;;;9.77;;
4616;SDS011;2321;42.704;23.384;2024-02-26T08:38:46;27.37;;;14.07;;
4616;SDS011;2321;42.704;23.384;2024-02-26T08:41:13;16.47;;;10.17;;
4616;SDS011;2321;42.704;23.384;2024-02-26T08:43:41;24.33;;;9.63;;
4616;SDS011;2321;42.704;23.384;2024-02-26T08:46:08;15.10;;;8.90;;
4616;SDS011;2321;42.704;23.384;2024-02-26T08:48:36;14.00;;;9.03;;
4616;SDS011;2321;42.704;23.384;2024-02-26T08:51:04;14.80;;;9.00;;
4616;SDS011;2321;42.704;23.384;2024-02-26T08:53:32;11.00;;;7.60;;
4616;SDS011;2321;42.704;23.384;2024-02-26T08:56:01;9.80;;;7.50;;
4616;SDS011;2321;42.704;23.384;2024-02-26T08:58:28;18.60;;;8.07;;
4616;SDS011;2321;42.704;23.384;2024-02-26T09:00:55;18.73;;;10.43;;
4616;SDS011;2321;42.704;23.384;2024-02-26T09:03:23;12.07;;;8.53;;
4616;SDS011;2321;42.704;23.384;2024-02-26T09:05:50;14.83;;;8.07;;
4616;SDS011;2321;42.704;23.384;2024-02-26T09:08:17;9.97;;;7.10;;
4616;SDS011;2321;42.704;23.384;2024-02-26T09:10:44;16.13;;;8.03;;
4616;SDS011;2321;42.704;23.384;2024-02-26T09:13:13;28.43;;;7.13;;
4616;SDS011;2321;42.704;23.384;2024-02-26T09:15:40;11.63;;;6.40;;
4616;SDS011;2321;42.704;23.384;2024-02-26T09:18:07;7.30;;;5.10;;
4616;SDS011;2321;42.704;23.384;2024-02-26T09:20:34;11.33;;;7.07;;
4616;SDS011;2321;42.704;23.384;2024-02-26T09:23:04;4.53;;;3.50;;
4616;SDS011;2321;42.704;23.384;2024-02-26T09:25:31;10.60;;;4.60;;
4616;SDS011;2321;42.704;23.384;2024-02-26T09:27:58;11.43;;;4.50;;
4616;SDS011;2321;42.704;23.384;2024-02-26T09:30:27;7.23;;;3.57;;
4616;SDS011;2321;42.704;23.384;2024-02-26T09:32:54;3.33;;;2.90;;
4616;SDS011;2321;42.704;23.384;2024-02-26T09:35:21;6.33;;;4.83;;
4616;SDS011;2321;42.704;23.384;2024-02-26T09:37:48;4.17;;;3.73;;
4616;SDS011;2321;42.704;23.384;2024-02-26T09:40:15;8.23;;;3.50;;
4616;SDS011;2321;42.704;23.384;2024-02-26T09:42:43;4.07;;;3.67;;
4616;SDS011;2321;42.704;23.384;2024-02-26T09:45:18;4.47;;;4.03;;
4616;SDS011;2321;42.704;23.384;2024-02-26T09:47:47;4.00;;;3.63;;
4616;SDS011;2321;42.704;23.384;2024-02-26T09:50:16;13.63;;;4.10;;
4616;SDS011;2321;42.704;23.384;2024-02-26T09:52:47;7.83;;;3.43;;
4616;SDS011;2321;42.704;23.384;2024-02-26T09:55:15;3.57;;;3.27;;
4616;SDS011;2321;42.704;23.384;2024-02-26T09:57:43;4.10;;;3.20;;
4616;SDS011;2321;42.704;23.384;2024-02-26T10:00:13;7.90;;;4.10;;
4616;SDS011;2321;42.704;23.384;2024-02-26T10:02:47;4.30;;;3.70;;
4616;SDS011;2321;42.704;23.384;2024-02-26T10:05:16;4.13;;;3.80;;
4616;SDS011;2321;42.704;23.384;2024-02-26T10:07:44;4.50;;;4.10;;
4616;SDS011;2321;42.704;23.384;2024-02-26T10:10:12;5.00;;;4.03;;
4616;SDS011;2321;42.704;23.384;2024-02-26T10:12:41;3.80;;;3.50;;
4616;SDS011;2321;42.704;23.384;2024-02-26T10:15:09;4.00;;;3.67;;
4616;SDS011;2321;42.704;23.384;2024-02-26T10:17:37;13.47;;;4.67;;
4616;SDS011;2321;42.704;23.384;2024-02-26T10:20:13;8.43;;;4.03;;
4616;SDS011;2321;42.704;23.384;2024-02-26T10:22:42;4.57;;;4.13;;
4616;SDS011;2321;42.704;23.384;2024-02-26T10:25:09;6.47;;;3.20;;
4616;SDS011;2321;42.704;23.384;2024-02-26T10:27:37;5.70;;;4.00;;
4616;SDS011;2321;42.704;23.384;2024-02-26T10:30:04;3.77;;;3.33;;
4616;SDS011;2321;42.704;23.384;2024-02-26T10:32:44;8.67;;;3.50;;
4616;SDS011;2321;42.704;23.384;2024-02-26T10:35:16;4.67;;;3.87;;
4616;SDS011;2321;42.704;23.384;2024-02-26T10:37:45;14.93;;;4.00;;
4616;SDS011;2321;42.704;23.384;2024-02-26T10:40:14;8.10;;;3.60;;
4616;SDS011;2321;42.704;23.384;2024-02-26T10:42:42;3.73;;;3.50;;
4616;SDS011;2321;42.704;23.384;2024-02-26T10:45:10;8.77;;;4.27;;
4616;SDS011;2321;42.704;23.384;2024-02-26T10:47:38;5.40;;;4.30;;
4616;SDS011;2321;42.704;23.384;2024-02-26T10:50:07;7.57;;;3.90;;
4616;SDS011;2321;42.704;23.384;2024-02-26T10:52:36;4.57;;;3.10;;
4616;SDS011;2321;42.704;23.384;2024-02-26T10:55:04;3.60;;;3.30;;
4616;SDS011;2321;42.704;23.384;2024-02-26T10:57:33;3.30;;;3.00;;
4616;SDS011;2321;42.704;23.384;2024-02-26T11:00:04;5.00;;;4.50;;
4616;SDS011;2321;42.704;23.384;2024-02-26T11:02:35;3.83;;;3.50;;
4616;SDS011;2321;42.704;23.384;2024-02-26T11:07:39;5.77;;;3.77;;
4616;SDS011;2321;42.704;23.384;2024-02-26T11:10:20;3.73;;;3.43;;
4616;SDS011;2321;42.704;23.384;2024-02-26T11:15:45;4.20;;;3.70;;
4616;SDS011;2321;42.704;23.384;2024-02-26T11:18:14;5.97;;;4.03;;
4616;SDS011;2321;42.704;23.384;2024-02-26T11:20:41;4.80;;;2.97;;
4616;SDS011;2321;42.704;23.384;2024-02-26T11:23:12;10.50;;;3.33;;
4616;SDS011;2321;42.704;23.384;2024-02-26T11:25:39;3.50;;;3.20;;
4616;SDS011;2321;42.704;23.384;2024-02-26T11:28:06;3.00;;;2.87;;
4616;SDS011;2321;42.704;23.384;2024-02-26T11:30:39;3.00;;;2.80;;
4616;SDS011;2321;42.704;23.384;2024-02-26T11:33:09;3.80;;;3.40;;
4616;SDS011;2321;42.704;23.384;2024-02-26T11:35:40;3.67;;;3.30;;
4616;SDS011;2321;42.704;23.384;2024-02-26T11:38:12;7.50;;;3.03;;
4616;SDS011;2321;42.704;23.384;2024-02-26T11:40:44;2.67;;;2.57;;
4616;SDS011;2321;42.704;23.384;2024-02-26T11:43:11;5.10;;;3.67;;
4616;SDS011;2321;42.704;23.384;2024-02-26T11:45:49;3.00;;;2.73;;
4616;SDS011;2321;42.704;23.384;2024-02-26T11:48:20;5.03;;;3.70;;
4616;SDS011;2321;42.704;23.384;2024-02-26T11:50:48;3.47;;;2.77;;
4616;SDS011;2321;42.704;23.384;2024-02-26T11:53:21;5.67;;;3.60;;
4616;SDS011;2321;42.704;23.384;2024-02-26T11:58:46;4.20;;;2.70;;
4616;SDS011;2321;42.704;23.384;2024-02-26T12:04:07;4.23;;;3.00;;
4616;SDS011;2321;42.704;23.384;2024-02-26T12:06:44;3.63;;;2.60;;
4616;SDS011;2321;42.704;23.384;2024-02-26T12:09:17;3.13;;;2.73;;
4616;SDS011;2321;42.704;23.384;2024-02-26T12:11:57;4.40;;;3.33;;
4616;SDS011;2321;42.704;23.384;2024-02-26T12:14:25;3.83;;;2.47;;
4616;SDS011;2321;42.704;23.384;2024-02-26T12:16:52;6.87;;;2.83;;
4616;SDS011;2321;42.704;23.384;2024-02-26T12:19:21;6.93;;;2.80;;
4616;SDS011;2321;42.704;23.384;2024-02-26T12:21:51;6.00;;;3.37;;
4616;SDS011;2321;42.704;23.384;2024-02-26T12:24:20;11.83;;;2.67;;
4616;SDS011;2321;42.704;23.384;2024-02-26T12:26:47;7.03;;;3.27;;
4616;SDS011;2321;42.704;23.384;2024-02-26T12:29:14;6.43;;;2.93;;
4616;SDS011;2321;42.704;23.384;2024-02-26T12:31:41;4.13;;;3.10;;
4616;SDS011;2321;42.704;23.384;2024-02-26T12:42:34;5.40;;;2.90;;
4616;SDS011;2321;42.704;23.384;2024-02-26T12:45:05;9.70;;;3.17;;
4616;SDS011;2321;42.704;23.384;2024-02-26T12:47:37;3.40;;;2.77;;
4616;SDS011;2321;42.704;23.384;2024-02-26T12:50:07;2.57;;;2.40;;
4616;SDS011;2321;42.704;23.384;2024-02-26T12:52:35;14.80;;;3.20;;
4616;SDS011;2321;42.704;23.384;2024-02-26T12:55:05;2.93;;;2.70;;
4616;SDS011;2321;42.704;23.384;2024-02-26T12:57:35;3.20;;;2.90;;
4616;SDS011;2321;42.704;23.384;2024-02-26T13:00:04;2.73;;;2.63;;
4616;SDS011;2321;42.704;23.384;2024-02-26T13:02:34;5.60;;;2.97;;
4616;SDS011;2321;42.704;23.384;2024-02-26T13:05:02;2.93;;;2.50;;
4616;SDS011;2321;42.704;23.384;2024-02-26T13:07:30;3.30;;;3.00;;
4616;SDS011;2321;42.704;23.384;2024-02-26T13:09:58;2.53;;;2.40;;
4616;SDS011;2321;42.704;23.384;2024-02-26T13:12:26;2.70;;;2.50;;
4616;SDS011;2321;42.704;23.384;2024-02-26T13:15:00;3.70;;;2.77;;
4616;SDS011;2321;42.704;23.384;2024-02-26T13:17:31;4.37;;;3.40;;
4616;SDS011;2321;42.704;23.384;2024-02-26T13:25:14;4.47;;;4.07;;
4616;SDS011;2321;42.704;23.384;2024-02-26T13:27:47;2.87;;;2.67;;
4616;SDS011;2321;42.704;23.384;2024-02-26T13:30:16;5.53;;;2.50;;
4616;SDS011;2321;42.704;23.384;2024-02-26T13:32:44;2.93;;;2.73;;
4616;SDS011;2321;42.704;23.384;2024-02-26T13:35:12;2.93;;;2.77;;
4616;SDS011;2321;42.704;23.384;2024-02-26T13:37:39;3.10;;;2.80;;
4616;SDS011;2321;42.704;23.384;2024-02-26T13:40:07;2.53;;;2.43;;
4616;SDS011;2321;42.704;23.384;2024-02-26T13:42:35;2.63;;;2.43;;
4616;SDS011;2321;42.704;23.384;2024-02-26T13:45:03;2.60;;;2.50;;
4616;SDS011;2321;42.704;23.384;2024-02-26T13:47:33;4.07;;;2.53;;
4616;SDS011;2321;42.704;23.384;2024-02-26T13:50:00;4.40;;;2.37;;
4616;SDS011;2321;42.704;23.384;2024-02-26T13:52:28;2.47;;;2.37;;
4616;SDS011;2321;42.704;23.384;2024-02-26T13:54:57;9.13;;;2.83;;
4616;SDS011;2321;42.704;23.384;2024-02-26T13:57:24;17.83;;;2.90;;
4616;SDS011;2321;42.704;23.384;2024-02-26T13:59:51;3.90;;;2.30;;
4616;SDS011;2321;42.704;23.384;2024-02-26T14:02:19;2.63;;;2.47;;
4616;SDS011;2321;42.704;23.384;2024-02-26T14:04:47;2.57;;;2.37;;
4616;SDS011;2321;42.704;23.384;2024-02-26T14:07:14;4.37;;;3.40;;
4616;SDS011;2321;42.704;23.384;2024-02-26T14:09:42;9.53;;;2.40;;
4616;SDS011;2321;42.704;23.384;2024-02-26T14:12:10;3.40;;;2.77;;
4616;SDS011;2321;42.704;23.384;2024-02-26T14:14:38;2.13;;;1.80;;
4616;SDS011;2321;42.704;23.384;2024-02-26T14:17:07;4.97;;;2.33;;
4616;SDS011;2321;42.704;23.384;2024-02-26T14:19:34;5.53;;;2.20;;
4616;SDS011;2321;42.704;23.384;2024-02-26T14:22:04;2.27;;;2.10;;
4616;SDS011;2321;42.704;23.384;2024-02-26T14:24:31;4.77;;;2.50;;
4616;SDS011;2321;42.704;23.384;2024-02-26T14:26:58;2.83;;;2.63;;
4616;SDS011;2321;42.704;23.384;2024-02-26T14:29:26;2.80;;;2.60;;
4616;SDS011;2321;42.704;23.384;2024-02-26T14:31:53;3.53;;;2.30;;
4616;SDS011;2321;42.704;23.384;2024-02-26T14:34:21;2.00;;;1.90;;
4616;SDS011;2321;42.704;23.384;2024-02-26T14:36:48;3.17;;;2.40;;
4616;SDS011;2321;42.704;23.384;2024-02-26T14:42:19;3.40;;;2.90;;
4616;SDS011;2321;42.704;23.384;2024-02-26T14:44:46;2.90;;;2.70;;
4616;SDS011;2321;42.704;23.384;2024-02-26T14:47:13;2.40;;;2.30;;
4616;SDS011;2321;42.704;23.384;2024-02-26T14:49:40;2.50;;;2.30;;
4616;SDS011;2321;42.704;23.384;2024-02-26T14:52:07;12.20;;;2.90;;
4616;SDS011;2321;42.704;23.384;2024-02-26T14:54:34;3.33;;;2.40;;
4616;SDS011;2321;42.704;23.384;2024-02-26T14:57:04;11.40;;;2.07;;
4616;SDS011;2321;42.704;23.384;2024-02-26T14:59:33;3.13;;;2.80;;
4616;SDS011;2321;42.704;23.384;2024-02-26T15:02:01;5.20;;;3.40;;
4616;SDS011;2321;42.704;23.384;2024-02-26T15:04:28;3.90;;;2.87;;
4616;SDS011;2321;42.704;23.384;2024-02-26T15:06:55;3.27;;;2.77;;
4616;SDS011;2321;42.704;23.384;2024-02-26T15:09:22;7.60;;;3.30;;
4616;SDS011;2321;42.704;23.384;2024-02-26T15:11:50;4.03;;;2.63;;
4616;SDS011;2321;42.704;23.384;2024-02-26T15:14:17;3.10;;;2.77;;
4616;SDS011;2321;42.704;23.384;2024-02-26T15:16:45;3.10;;;2.57;;
4616;SDS011;2321;42.704;23.384;2024-02-26T15:19:13;4.00;;;2.47;;